createdAt,value
2019-01-15T00:01:18.663Z,-11.75
2019-01-15T00:03:52.314Z,-11.51
2019-01-15T00:06:26.096Z,-11.79
2019-01-15T00:08:59.917Z,-11.69
2019-01-15T00:11:33.528Z,-11.55
2019-01-15T00:14:07.612Z,-11.50
2019-01-15T00:16:41.498Z,-11.66
2019-01-15T00:19:15.641Z,-11.63
2019-01-15T00:21:50.231Z,-11.96
2019-01-15T00:24:25.167Z,-11.82
2019-01-15T00:27:18.176Z,-11.52
2019-01-15T00:29:53.334Z,-11.56
2019-01-15T00:32:29.833Z,-11.58
2019-01-15T00:35:04.562Z,-11.44
2019-01-15T00:37:40.051Z,-11.30
2019-01-15T00:40:22.719Z,-11.33
2019-01-15T00:42:57.502Z,-11.33
2019-01-15T00:45:31.731Z,-11.68
2019-01-15T00:48:16.416Z,-11.45
2019-01-15T00:50:51.293Z,-11.57
2019-01-15T00:53:26.717Z,-11.73
2019-01-15T00:56:02.413Z,-11.90
2019-01-15T00:58:37.193Z,-11.53
2019-01-15T01:01:36.834Z,-11.61
2019-01-15T01:04:10.952Z,-11.35
2019-01-15T01:06:44.795Z,-11.50
2019-01-15T01:09:18.560Z,-11.76
2019-01-15T01:11:53.344Z,-11.57
2019-01-15T01:14:26.467Z,-11.33
2019-01-15T01:19:41.915Z,-11.45
2019-01-15T01:22:15.721Z,-11.38
2019-01-15T01:25:06.351Z,-11.34
2019-01-15T01:27:40.365Z,-11.35
2019-01-15T01:30:16.685Z,-11.15
2019-01-15T01:32:51.644Z,-11.05
2019-01-15T01:35:25.264Z,-10.99
2019-01-15T01:38:24.708Z,-11.11
2019-01-15T01:40:59.447Z,-10.92
2019-01-15T01:43:33.392Z,-10.78
2019-01-15T01:46:07.152Z,-10.78
2019-01-15T01:48:41.395Z,-10.92
2019-01-15T01:51:15.125Z,-11.15
2019-01-15T01:53:48.779Z,-11.20
2019-01-15T01:56:22.676Z,-10.90
2019-01-15T01:58:56.524Z,-10.59
2019-01-15T02:01:30.124Z,-10.52
2019-01-15T02:04:03.980Z,-10.60
2019-01-15T02:06:37.929Z,-10.77
2019-01-15T02:09:11.700Z,-10.61
2019-01-15T02:11:45.774Z,-10.75
2019-01-15T02:14:19.551Z,-10.82
2019-01-15T02:16:53.113Z,-10.47
2019-01-15T02:19:26.893Z,-10.17
2019-01-15T02:22:01.897Z,-10.31
2019-01-15T02:24:35.656Z,-10.05
2019-01-15T02:27:11.132Z,-10.32
2019-01-15T02:29:44.798Z,-10.05
2019-01-15T02:32:18.399Z,-10.06
2019-01-15T02:34:51.996Z,-10.33
2019-01-15T02:37:27.023Z,-10.50
2019-01-15T02:40:02.053Z,-10.12
2019-01-15T02:42:36.277Z,-10.04
2019-01-15T02:45:13.403Z,-9.88
2019-01-15T02:47:47.326Z,-9.49
2019-01-15T02:50:23.546Z,-9.38
2019-01-15T02:53:08.124Z,-9.41
2019-01-15T02:55:41.891Z,-9.79
2019-01-15T02:58:15.354Z,-9.79
2019-01-15T03:00:48.973Z,-9.74
2019-01-15T03:03:22.633Z,-9.34
2019-01-15T03:05:56.817Z,-9.77
2019-01-15T03:08:30.854Z,-9.48
2019-01-15T03:11:04.483Z,-9.26
2019-01-15T03:13:38.274Z,-9.68
2019-01-15T03:16:12.197Z,-9.64
2019-01-15T03:18:47.793Z,-9.44
2019-01-15T03:21:22.553Z,-8.71
2019-01-15T03:23:55.881Z,-9.04
2019-01-15T03:26:31.053Z,-9.25
2019-01-15T03:29:05.124Z,-9.02
2019-01-15T03:31:39.105Z,-9.39
2019-01-15T03:34:13.579Z,-9.32
2019-01-15T03:36:47.471Z,-9.14
2019-01-15T03:39:24.106Z,-8.77
2019-01-15T03:41:58.838Z,-8.82
2019-01-15T03:44:32.943Z,-9.01
2019-01-15T03:47:06.799Z,-9.13
2019-01-15T03:49:41.399Z,-9.03
2019-01-15T03:52:15.367Z,-9.26
2019-01-15T03:54:50.481Z,-9.25
2019-01-15T03:57:24.135Z,-9.06
2019-01-15T03:59:59.264Z,-9.06
2019-01-15T04:02:33.468Z,-8.78
2019-01-15T04:05:08.218Z,-8.61
2019-01-15T04:07:42.621Z,-8.89
2019-01-15T04:10:16.562Z,-8.73
2019-01-15T04:12:50.500Z,-8.27
2019-01-15T04:15:25.535Z,-8.18
2019-01-15T04:18:00.482Z,-8.11
2019-01-15T04:20:34.371Z,-8.37
2019-01-15T04:23:08.146Z,-8.19
2019-01-15T04:25:41.774Z,-8.03
2019-01-15T04:28:15.615Z,-7.72
2019-01-15T04:30:50.576Z,-8.08
2019-01-15T04:33:24.244Z,-7.96
2019-01-15T04:35:59.339Z,-7.75
2019-01-15T04:38:33.162Z,-7.81
2019-01-15T04:41:10.856Z,-7.95
2019-01-15T04:43:44.683Z,-7.92
2019-01-15T04:46:19.719Z,-7.49
2019-01-15T04:48:53.517Z,-7.55
2019-01-15T04:51:27.126Z,-7.67
2019-01-15T04:54:01.103Z,-7.83
2019-01-15T04:56:37.952Z,-8.14
2019-01-15T04:59:10.845Z,-7.98
2019-01-15T05:01:46.002Z,-8.04
2019-01-15T05:04:20.129Z,-8.06
2019-01-15T05:06:53.721Z,-7.69
2019-01-15T05:09:28.661Z,-7.89
2019-01-15T05:12:03.921Z,-8.08
2019-01-15T05:14:38.773Z,-8.14
2019-01-15T05:17:33.418Z,-8.20
2019-01-15T05:20:19.236Z,-8.42
2019-01-15T05:22:59.149Z,-8.38
2019-01-15T05:25:31.576Z,-8.53
2019-01-15T05:28:06.985Z,-8.25
2019-01-15T05:30:41.187Z,-7.92
2019-01-15T05:33:19.124Z,-7.77
2019-01-15T05:35:54.266Z,-7.88
2019-01-15T05:38:31.732Z,-8.06
2019-01-15T05:41:06.264Z,-7.85
2019-01-15T05:43:40.292Z,-7.99
2019-01-15T05:46:16.748Z,-8.32
2019-01-15T05:48:51.197Z,-8.29
2019-01-15T05:51:24.833Z,-8.30
2019-01-15T05:53:58.611Z,-8.30
2019-01-15T05:56:33.971Z,-8.13
2019-01-15T05:59:08.049Z,-8.29
2019-01-15T06:01:42.250Z,-8.55
2019-01-15T06:04:19.197Z,-8.23
2019-01-15T06:06:54.329Z,-8.24
2019-01-15T06:09:28.034Z,-8.23
2019-01-15T06:12:01.718Z,-8.33
2019-01-15T06:14:35.419Z,-8.71
2019-01-15T06:17:10.304Z,-8.72
2019-01-15T06:19:44.182Z,-8.68
2019-01-15T06:22:17.995Z,-8.57
2019-01-15T06:24:51.976Z,-8.69
2019-01-15T06:27:25.913Z,-8.66
2019-01-15T06:29:59.630Z,-8.65
2019-01-15T06:32:33.676Z,-8.42
2019-01-15T06:35:07.588Z,-8.50
2019-01-15T06:37:41.337Z,-8.57
2019-01-15T06:40:17.483Z,-8.62
2019-01-15T06:42:51.830Z,-8.70
2019-01-15T06:45:33.265Z,-8.55
2019-01-15T06:48:07.974Z,-8.69
2019-01-15T06:50:42.126Z,-8.64
2019-01-15T06:53:16.726Z,-8.76
2019-01-15T06:55:50.435Z,-8.75
2019-01-15T06:58:24.447Z,-8.85
2019-01-15T07:00:58.683Z,-8.97
2019-01-15T07:03:32.445Z,-8.93
2019-01-15T07:06:06.436Z,-8.93
2019-01-15T07:08:40.532Z,-8.77
2019-01-15T07:11:14.662Z,-8.96
2019-01-15T07:13:48.502Z,-9.06
2019-01-15T07:16:27.224Z,-9.09
2019-01-15T07:19:02.036Z,-8.89
2019-01-15T07:21:35.467Z,-8.71
2019-01-15T07:24:09.134Z,-8.71
2019-01-15T07:26:48.634Z,-9.03
2019-01-15T07:29:22.517Z,-9.16
2019-01-15T07:31:56.551Z,-9.25
2019-01-15T07:34:30.438Z,-9.26
2019-01-15T07:37:04.802Z,-9.12
2019-01-15T07:39:38.880Z,-9.18
2019-01-15T07:42:18.860Z,-9.34
2019-01-15T07:44:52.621Z,-9.52
2019-01-15T07:47:26.253Z,-9.47
2019-01-15T07:50:00.826Z,-9.45
2019-01-15T07:52:36.027Z,-9.54
2019-01-15T07:55:15.160Z,-9.38
2019-01-15T07:57:49.342Z,-9.55
2019-01-15T08:00:29.431Z,-9.40
2019-01-15T08:03:03.030Z,-9.49
2019-01-15T08:05:38.301Z,-9.53
2019-01-15T08:08:12.667Z,-9.59
2019-01-15T08:10:56.734Z,-9.50
2019-01-15T08:13:26.228Z,-9.53
2019-01-15T08:16:00.437Z,-9.64
2019-01-15T08:18:34.356Z,-9.67
2019-01-15T08:21:09.152Z,-9.75
2019-01-15T08:23:43.356Z,-9.83
2019-01-15T08:26:17.327Z,-9.97
2019-01-15T08:28:53.705Z,-9.87
2019-01-15T08:31:27.303Z,-9.87
2019-01-15T08:34:01.357Z,-9.69
2019-01-15T08:36:37.140Z,-9.79
2019-01-15T08:39:11.474Z,-10.00
2019-01-15T08:41:47.551Z,-9.92
2019-01-15T08:44:22.479Z,-10.05
2019-01-15T08:46:57.734Z,-9.99
2019-01-15T08:49:31.875Z,-9.95
2019-01-15T08:52:06.027Z,-9.84
2019-01-15T08:54:40.180Z,-9.84
2019-01-15T08:57:17.523Z,-10.03
2019-01-15T08:59:51.434Z,-9.91
2019-01-15T09:02:26.313Z,-9.91
2019-01-15T09:05:00.301Z,-9.90
2019-01-15T09:07:34.342Z,-9.95
2019-01-15T09:10:10.641Z,-9.97
2019-01-15T09:12:45.893Z,-9.93
2019-01-15T09:15:26.437Z,-10.03
2019-01-15T09:17:59.529Z,-10.08
2019-01-15T09:20:34.382Z,-10.18
2019-01-15T09:23:12.175Z,-10.34
2019-01-15T09:25:46.093Z,-10.38
2019-01-15T09:28:24.257Z,-10.21
2019-01-15T09:30:59.802Z,-10.17
2019-01-15T09:33:33.403Z,-10.21
2019-01-15T09:36:07.227Z,-10.18
2019-01-15T09:38:41.648Z,-10.33
2019-01-15T09:41:15.857Z,-10.22
2019-01-15T09:43:50.515Z,-10.20
2019-01-15T09:46:26.326Z,-10.24
2019-01-15T09:49:00.041Z,-10.35
2019-01-15T09:51:33.980Z,-10.34
2019-01-15T09:54:09.868Z,-10.24
2019-01-15T09:56:43.957Z,-10.15
2019-01-15T09:59:18.980Z,-10.15
2019-01-15T10:01:54.524Z,-10.15
2019-01-15T10:04:28.446Z,-10.20
2019-01-15T10:07:02.766Z,-10.29
2019-01-15T10:09:37.028Z,-10.30
2019-01-15T10:12:11.652Z,-10.33
2019-01-15T10:14:47.628Z,-10.35
2019-01-15T10:17:22.741Z,-10.35
2019-01-15T10:19:58.109Z,-10.32
2019-01-15T10:22:34.299Z,-10.50
2019-01-15T10:25:09.248Z,-10.57
2019-01-15T10:27:45.575Z,-10.55
2019-01-15T10:30:28.122Z,-10.49
2019-01-15T10:33:17.302Z,-10.73
2019-01-15T10:35:53.944Z,-10.79
2019-01-15T10:38:30.780Z,-10.87
2019-01-15T10:41:06.938Z,-11.06
2019-01-15T10:43:45.906Z,-11.06
2019-01-15T10:46:22.459Z,-11.04
2019-01-15T10:48:56.280Z,-11.14
2019-01-15T10:51:31.439Z,-11.09
2019-01-15T10:54:10.707Z,-11.24
2019-01-15T10:56:47.022Z,-11.17
2019-01-15T10:59:21.788Z,-11.04
2019-01-15T11:01:59.851Z,-11.13
2019-01-15T11:04:34.803Z,-11.13
2019-01-15T11:07:09.946Z,-11.26
2019-01-15T11:09:45.264Z,-11.41
2019-01-15T11:12:23.165Z,-11.36
2019-01-15T11:15:01.882Z,-11.37
2019-01-15T11:17:41.099Z,-11.51
2019-01-15T11:20:24.305Z,-11.43
2019-01-15T11:23:02.777Z,-11.42
2019-01-15T11:25:39.877Z,-11.36
2019-01-15T11:28:18.890Z,-11.42
2019-01-15T11:30:55.506Z,-11.45
2019-01-15T11:33:32.306Z,-11.41
2019-01-15T11:36:11.326Z,-11.59
2019-01-15T11:38:46.703Z,-11.49
2019-01-15T11:41:24.119Z,-11.49
2019-01-15T11:44:00.288Z,-11.40
2019-01-15T11:46:45.395Z,-11.48
2019-01-15T11:49:20.661Z,-11.40
2019-01-15T11:52:00.907Z,-11.59
2019-01-15T11:54:36.098Z,-11.62
2019-01-15T11:57:12.671Z,-11.62
2019-01-15T11:59:48.059Z,-11.57
2019-01-15T12:02:25.781Z,-11.73
2019-01-15T12:05:00.705Z,-11.74
2019-01-15T12:07:37.311Z,-11.65
2019-01-15T12:10:15.161Z,-11.84
2019-01-15T12:12:51.448Z,-11.69
2019-01-15T12:15:27.031Z,-11.71
2019-01-15T12:18:03.985Z,-11.71
2019-01-15T12:20:40.830Z,-11.82
2019-01-15T12:23:17.573Z,-11.86
2019-01-15T12:25:56.021Z,-11.79
2019-01-15T12:28:35.489Z,-11.73
2019-01-15T12:31:16.901Z,-12.00
2019-01-15T12:33:55.409Z,-12.08
2019-01-15T12:36:31.371Z,-11.99
2019-01-15T12:39:09.595Z,-11.97
2019-01-15T12:41:45.491Z,-11.89
2019-01-15T12:44:20.381Z,-12.05
2019-01-15T12:46:56.626Z,-11.96
2019-01-15T12:49:32.498Z,-12.09
2019-01-15T12:52:08.380Z,-12.01
2019-01-15T12:54:43.937Z,-12.04
2019-01-15T12:57:19.332Z,-12.05
2019-01-15T12:59:56.101Z,-12.00
2019-01-15T13:02:34.450Z,-12.15
2019-01-15T13:05:13.901Z,-12.25
2019-01-15T13:07:49.342Z,-12.19
2019-01-15T13:10:26.268Z,-12.17
2019-01-15T13:13:01.978Z,-12.18
2019-01-15T13:15:36.908Z,-12.28
2019-01-15T13:18:16.035Z,-12.29
2019-01-15T13:20:52.963Z,-12.23
2019-01-15T13:23:28.277Z,-12.30
2019-01-15T13:26:03.071Z,-12.26
2019-01-15T13:28:40.836Z,-12.35
2019-01-15T13:31:15.537Z,-12.16
2019-01-15T13:33:51.339Z,-12.11
2019-01-15T13:36:26.326Z,-11.90
2019-01-15T13:39:02.586Z,-11.96
2019-01-15T13:41:41.202Z,-12.10
2019-01-15T13:44:16.512Z,-12.09
2019-01-15T13:46:52.228Z,-12.09
2019-01-15T13:49:27.693Z,-11.95
2019-01-15T13:52:02.826Z,-11.91
2019-01-15T13:54:38.511Z,-11.87
2019-01-15T13:57:14.319Z,-12.02
2019-01-15T13:59:52.428Z,-11.92
2019-01-15T14:02:29.221Z,-11.86
2019-01-15T14:05:06.558Z,-11.76
2019-01-15T14:07:42.304Z,-11.76
2019-01-15T14:10:18.820Z,-11.93
2019-01-15T14:12:54.652Z,-12.01
2019-01-15T14:15:31.949Z,-11.97
2019-01-15T14:18:10.671Z,-12.08
2019-01-15T14:20:46.784Z,-12.00
2019-01-15T14:23:23.055Z,-12.17
2019-01-15T14:26:01.464Z,-11.96
2019-01-15T14:28:36.685Z,-11.92
2019-01-15T14:31:12.529Z,-12.00
2019-01-15T14:33:47.334Z,-11.96
2019-01-15T14:36:24.722Z,-12.01
2019-01-15T14:39:00.797Z,-11.97
2019-01-15T14:41:39.220Z,-12.04
2019-01-15T14:44:17.453Z,-12.18
2019-01-15T14:46:54.019Z,-12.10
2019-01-15T14:49:33.866Z,-12.12
2019-01-15T14:52:11.287Z,-11.96
2019-01-15T14:54:45.735Z,-12.05
2019-01-15T14:57:20.774Z,-12.03
2019-01-15T14:59:54.861Z,-12.10
2019-01-15T15:02:28.984Z,-12.08
2019-01-15T15:05:03.366Z,-12.09
2019-01-15T15:07:38.607Z,-12.05
2019-01-15T15:10:15.282Z,-12.01
2019-01-15T15:12:49.589Z,-11.93
2019-01-15T15:15:23.768Z,-12.00
2019-01-15T15:18:00.696Z,-12.04
2019-01-15T15:20:34.878Z,-12.08
2019-01-15T15:23:08.773Z,-12.04
2019-01-15T15:25:42.775Z,-12.15
2019-01-15T15:28:16.835Z,-12.16
2019-01-15T15:30:50.962Z,-11.93
2019-01-15T15:33:25.440Z,-12.01
2019-01-15T15:36:00.325Z,-12.00
2019-01-15T15:38:33.976Z,-12.12
2019-01-15T15:41:10.995Z,-12.15
2019-01-15T15:43:44.707Z,-12.05
2019-01-15T15:46:18.800Z,-12.08
2019-01-15T15:48:52.825Z,-12.03
2019-01-15T15:51:26.562Z,-12.06
2019-01-15T15:54:00.992Z,-12.04
2019-01-15T15:56:34.889Z,-12.05
2019-01-15T15:59:09.079Z,-12.06
2019-01-15T16:01:43.062Z,-12.15
2019-01-15T16:04:18.336Z,-12.19
2019-01-15T16:06:55.070Z,-12.12
2019-01-15T16:09:28.997Z,-12.15
2019-01-15T16:12:05.932Z,-12.18
2019-01-15T16:14:40.078Z,-12.20
2019-01-15T16:17:14.045Z,-12.22
2019-01-15T16:19:48.764Z,-12.08
2019-01-15T16:22:22.717Z,-12.35
2019-01-15T16:24:56.927Z,-12.21
2019-01-15T16:27:31.999Z,-12.33
2019-01-15T16:30:17.552Z,-12.27
2019-01-15T16:32:54.565Z,-12.29
2019-01-15T16:35:29.018Z,-12.28
2019-01-15T16:38:02.885Z,-12.20
2019-01-15T16:40:38.255Z,-12.25
2019-01-15T16:43:12.127Z,-12.17
2019-01-15T16:45:46.191Z,-12.17
2019-01-15T16:48:24.934Z,-12.14
2019-01-15T16:50:59.852Z,-12.05
2019-01-15T16:53:33.929Z,-12.09
2019-01-15T16:56:11.422Z,-11.98
2019-01-15T16:58:45.333Z,-12.08
2019-01-15T17:01:20.622Z,-12.17
2019-01-15T17:03:54.542Z,-12.11
2019-01-15T17:06:28.575Z,-12.10
2019-01-15T17:09:03.224Z,-12.11
2019-01-15T17:11:37.716Z,-12.06
2019-01-15T17:14:11.816Z,-12.07
2019-01-15T17:16:47.280Z,-11.96
2019-01-15T17:19:21.675Z,-12.18
2019-01-15T17:21:55.805Z,-12.23
2019-01-15T17:24:29.423Z,-12.13
2019-01-15T17:27:02.959Z,-12.10
2019-01-15T17:29:37.024Z,-12.00
2019-01-15T17:32:10.804Z,-12.05
2019-01-15T17:34:44.293Z,-12.05
2019-01-15T17:37:18.319Z,-12.00
2019-01-15T17:39:53.056Z,-11.94
2019-01-15T17:42:27.585Z,-11.90
2019-01-15T17:45:01.780Z,-12.03
2019-01-15T17:47:35.955Z,-12.01
2019-01-15T17:50:12.193Z,-11.93
2019-01-15T17:52:46.509Z,-12.00
2019-01-15T17:55:22.160Z,-11.87
2019-01-15T17:57:56.071Z,-11.89
2019-01-15T18:00:30.039Z,-11.84
2019-01-15T18:03:04.321Z,-11.82
2019-01-15T18:05:38.971Z,-11.80
2019-01-15T18:08:13.377Z,-11.71
2019-01-15T18:10:47.246Z,-11.75
2019-01-15T18:13:21.160Z,-11.85
2019-01-15T18:15:55.791Z,-11.75
2019-01-15T18:18:29.918Z,-11.70
2019-01-15T18:21:03.372Z,-11.84
2019-01-15T18:23:36.945Z,-11.80
2019-01-15T18:26:11.593Z,-11.73
2019-01-15T18:28:46.457Z,-11.70
2019-01-15T18:31:20.450Z,-11.74
2019-01-15T18:33:55.733Z,-11.68
2019-01-15T18:36:29.587Z,-11.75
2019-01-15T18:39:03.765Z,-11.66
2019-01-15T18:41:37.793Z,-11.78
2019-01-15T18:44:11.619Z,-11.79
2019-01-15T18:46:45.431Z,-11.93
2019-01-15T18:49:20.133Z,-11.90
2019-01-15T18:51:54.248Z,-11.94
2019-01-15T18:54:27.955Z,-11.77
2019-01-15T18:57:01.978Z,-11.88
2019-01-15T18:59:35.854Z,-11.91
2019-01-15T19:02:09.775Z,-11.81
2019-01-15T19:04:45.342Z,-11.68
2019-01-15T19:07:20.293Z,-11.69
2019-01-15T19:09:55.476Z,-11.86
2019-01-15T19:12:29.175Z,-11.84
2019-01-15T19:15:02.743Z,-11.98
2019-01-15T19:17:36.331Z,-11.96
2019-01-15T19:20:12.775Z,-11.99
2019-01-15T19:22:46.622Z,-11.99
2019-01-15T19:25:20.223Z,-12.01
2019-01-15T19:27:54.923Z,-12.02
2019-01-15T19:30:28.628Z,-12.12
2019-01-15T19:33:02.207Z,-11.93
2019-01-15T19:35:35.798Z,-11.99
2019-01-15T19:38:09.706Z,-12.10
2019-01-15T19:40:43.241Z,-12.01
2019-01-15T19:43:16.908Z,-11.91
2019-01-15T19:45:50.872Z,-11.91
2019-01-15T19:48:24.895Z,-11.91
2019-01-15T19:50:58.764Z,-11.91
2019-01-15T19:53:32.782Z,-11.77
2019-01-15T19:56:06.620Z,-11.89
2019-01-15T19:58:40.420Z,-11.77
2019-01-15T20:01:14.605Z,-11.82
2019-01-15T20:03:48.180Z,-11.88
2019-01-15T20:06:23.377Z,-11.82
2019-01-15T20:08:57.211Z,-11.84
2019-01-15T20:11:31.711Z,-11.86
2019-01-15T20:14:05.251Z,-11.84
2019-01-15T20:16:40.086Z,-11.84
2019-01-15T20:19:13.669Z,-11.87
2019-01-15T20:21:47.616Z,-11.98
2019-01-15T20:24:21.292Z,-11.98
2019-01-15T20:26:54.911Z,-11.95
2019-01-15T20:29:28.452Z,-11.92
2019-01-15T20:32:02.430Z,-11.98
2019-01-15T20:34:35.629Z,-11.90
2019-01-15T20:37:09.808Z,-11.87
2019-01-15T20:39:43.510Z,-11.85
2019-01-15T20:42:17.611Z,-11.83
2019-01-15T20:44:51.807Z,-11.76
2019-01-15T20:47:25.951Z,-11.76
2019-01-15T20:50:00.283Z,-11.60
2019-01-15T20:52:34.721Z,-11.63
2019-01-15T20:55:10.930Z,-11.60
2019-01-15T20:57:46.326Z,-11.60
2019-01-15T21:00:20.531Z,-11.62
2019-01-15T21:02:54.225Z,-11.59
2019-01-15T21:05:28.041Z,-11.45
2019-01-15T21:08:01.749Z,-11.46
2019-01-15T21:10:35.318Z,-11.38
2019-01-15T21:13:09.575Z,-11.39
2019-01-15T21:15:43.554Z,-11.45
2019-01-15T21:18:17.666Z,-11.42
2019-01-15T21:20:51.615Z,-11.42
2019-01-15T21:23:26.263Z,-11.38
2019-01-15T21:26:01.156Z,-11.28
2019-01-15T21:28:34.678Z,-11.19
2019-01-15T21:31:09.432Z,-11.25
2019-01-15T21:33:43.193Z,-11.24
2019-01-15T21:36:17.007Z,-11.26
2019-01-15T21:38:52.695Z,-11.26
2019-01-15T21:41:25.826Z,-11.13
2019-01-15T21:43:59.770Z,-11.20
2019-01-15T21:46:39.809Z,-11.15
2019-01-15T21:49:13.973Z,-11.09
2019-01-15T21:51:51.496Z,-11.14
2019-01-15T21:54:25.793Z,-11.07
2019-01-15T21:57:00.417Z,-11.05
2019-01-15T21:59:33.845Z,-11.16
2019-01-15T22:02:07.669Z,-11.06
2019-01-15T22:05:01.944Z,-11.09
2019-01-15T22:07:35.732Z,-11.05
2019-01-15T22:10:11.893Z,-10.99
2019-01-15T22:12:46.242Z,-10.95
2019-01-15T22:15:20.913Z,-11.01
2019-01-15T22:17:54.294Z,-10.97
2019-01-15T22:20:27.824Z,-11.06
2019-01-15T22:23:01.660Z,-11.07
2019-01-15T22:25:36.063Z,-10.96
2019-01-15T22:28:13.536Z,-11.11
2019-01-15T22:30:47.510Z,-11.06
2019-01-15T22:33:23.263Z,-11.00
2019-01-15T22:35:58.201Z,-11.11
2019-01-15T22:38:33.025Z,-10.99
2019-01-15T22:41:09.071Z,-10.97
2019-01-15T22:43:42.854Z,-11.03
2019-01-15T22:46:16.963Z,-10.94
2019-01-15T22:48:51.889Z,-10.85
2019-01-15T22:51:26.947Z,-10.80
2019-01-15T22:54:00.967Z,-10.83
2019-01-15T22:56:52.954Z,-10.84
2019-01-15T22:59:26.970Z,-10.86
2019-01-15T23:02:00.731Z,-10.83
2019-01-15T23:04:37.390Z,-10.88
2019-01-15T23:07:11.433Z,-10.93
2019-01-15T23:09:45.561Z,-10.81
2019-01-15T23:12:19.302Z,-10.63
2019-01-15T23:14:53.515Z,-10.67
2019-01-15T23:17:28.636Z,-10.83
2019-01-15T23:20:02.177Z,-10.82
2019-01-15T23:22:35.970Z,-10.80
2019-01-15T23:25:11.722Z,-10.81
2019-01-15T23:27:46.347Z,-10.66
2019-01-15T23:30:20.224Z,-10.65
2019-01-15T23:32:55.160Z,-10.63
2019-01-15T23:35:29.158Z,-10.60
2019-01-15T23:38:03.745Z,-10.74
2019-01-15T23:40:37.554Z,-10.77
2019-01-15T23:43:10.692Z,-10.74
2019-01-15T23:45:44.734Z,-10.61
2019-01-15T23:48:18.590Z,-10.72
2019-01-15T23:50:52.557Z,-10.55
2019-01-15T23:53:27.943Z,-10.53
2019-01-15T23:56:03.567Z,-10.62
2019-01-15T23:58:37.458Z,-10.59
